Time;durP1;ratioP1;P1;durP2;ratioP2;P2;SDS_P1;SDS_P2;PMS_P1;PMS_P2;Temp;Humidity;BMP_temperature;BMP_pressure;BME280_temperature;BME280_humidity;BME280_pressure;Samples;Min_cycle;Max_cycle;Signal;HPM_P1;HPM_P2
2022/01/22 00:00:09;;;;;;;7.60;5.65;;;;;;;;;;10373879;28;20063;-64
2022/01/22 00:05:11;;;;;;;7.10;5.00;;;;;;;;;;10372971;28;20225;-63
2022/01/22 00:10:14;;;;;;;5.55;3.97;;;;;;;;;;10359354;28;20075;-63
2022/01/22 00:15:16;;;;;;;6.43;4.60;;;;;;;;;;10365577;28;20080;-64
2022/01/22 00:20:21;;;;;;;8.55;5.20;;;;;;;;;;10345818;28;20474;-63
2022/01/22 00:25:20;;;;;;;11.95;4.85;;;;;;;;;;10340527;28;20140;-63
2022/01/22 00:30:19;;;;;;;5.10;4.60;;;;;;;;;;10335022;28;20831;-62
2022/01/22 00:35:18;;;;;;;10.15;5.38;;;;;;;;;;10350652;28;20055;-63
2022/01/22 00:40:18;;;;;;;7.43;5.22;;;;;;;;;;10363465;28;20071;-63
2022/01/22 00:45:20;;;;;;;10.45;6.32;;;;;;;;;;10337705;28;20512;-63
2022/01/22 00:50:19;;;;;;;11.82;6.28;;;;;;;;;;10351622;28;20078;-63
2022/01/22 00:55:19;;;;;;;9.82;5.60;;;;;;;;;;10362273;28;20063;-63
2022/01/22 01:00:18;;;;;;;7.80;5.60;;;;;;;;;;10358766;28;20063;-62
2022/01/22 01:05:16;;;;;;;8.48;5.32;;;;;;;;;;10350664;28;20153;-63
2022/01/22 01:10:17;;;;;;;6.93;4.68;;;;;;;;;;10350912;28;20075;-63
2022/01/22 01:15:34;;;;;;;6.00;4.57;;;;;;;;;;10333679;28;20503;-63
2022/01/22 01:36:21;;;;;;;7.20;4.43;;;;;;;;;;10357833;28;19975;-64
2022/01/22 01:41:28;;;;;;;8.80;5.40;;;;;;;;;;10357187;28;20052;-63
2022/01/22 01:46:30;;;;;;;7.78;5.35;;;;;;;;;;10343914;28;20087;-64
2022/01/22 01:51:32;;;;;;;10.15;5.30;;;;;;;;;;10338759;28;20044;-63
2022/01/22 02:01:47;;;;;;;9.38;4.93;;;;;;;;;;10344227;28;20102;-64
2022/01/22 02:06:48;;;;;;;9.38;6.40;;;;;;;;;;10342805;28;20657;-64
2022/01/22 02:11:57;;;;;;;7.05;5.63;;;;;;;;;;10343977;28;20048;-64
2022/01/22 02:28:00;;;;;;;7.85;4.70;;;;;;;;;;10356052;28;20076;-64
2022/01/22 02:33:13;;;;;;;11.75;6.22;;;;;;;;;;10355321;28;20060;-63
2022/01/22 02:38:19;;;;;;;9.48;6.82;;;;;;;;;;10349937;28;20080;-63
2022/01/22 02:43:18;;;;;;;8.80;6.30;;;;;;;;;;10343390;28;20063;-64
2022/01/22 02:48:17;;;;;;;10.45;5.97;;;;;;;;;;10358876;28;20079;-63
2022/01/22 02:53:17;;;;;;;12.55;7.40;;;;;;;;;;10336834;28;20075;-64
2022/01/22 02:58:16;;;;;;;22.65;12.25;;;;;;;;;;10336163;28;20083;-64
2022/01/22 03:03:15;;;;;;;13.07;7.32;;;;;;;;;;10340739;28;20075;-64
2022/01/22 03:08:14;;;;;;;9.75;6.25;;;;;;;;;;10355168;28;20497;-64
2022/01/22 03:13:46;;;;;;;8.20;6.10;;;;;;;;;;10335617;28;20044;-64
2022/01/22 03:18:48;;;;;;;10.25;5.90;;;;;;;;;;10352420;28;20193;-64
2022/01/22 03:29:08;;;;;;;9.18;6.55;;;;;;;;;;10351507;28;20083;-64
2022/01/22 03:34:06;;;;;;;18.98;6.55;;;;;;;;;;10351287;28;20458;-63
2022/01/22 03:39:06;;;;;;;12.27;6.85;;;;;;;;;;10356684;28;20079;-63
2022/01/22 03:44:06;;;;;;;15.68;7.03;;;;;;;;;;10357401;28;20501;-64
2022/01/22 03:49:10;;;;;;;14.18;8.25;;;;;;;;;;10329852;28;20481;-64
2022/01/22 03:54:08;;;;;;;11.00;7.55;;;;;;;;;;10334725;28;20516;-64
2022/01/22 03:59:08;;;;;;;9.27;6.72;;;;;;;;;;10331064;28;20072;-64
2022/01/22 04:04:36;;;;;;;12.63;6.90;;;;;;;;;;10337386;28;20083;-63
2022/01/22 04:09:40;;;;;;;10.13;6.32;;;;;;;;;;10334018;28;20083;-63
2022/01/22 04:14:46;;;;;;;15.05;7.13;;;;;;;;;;10334811;28;20094;-64
2022/01/22 04:25:00;;;;;;;;;;;;;;;;;;10348462;28;20076;-63
2022/01/22 04:30:00;;;;;;;13.50;7.40;;;;;;;;;;10332357;28;19962;-64
2022/01/22 04:34:58;;;;;;;12.82;10.30;;;;;;;;;;10348571;28;20071;-64
2022/01/22 04:39:56;;;;;;;19.83;8.02;;;;;;;;;;10335675;28;20083;-64
2022/01/22 04:44:56;;;;;;;14.90;9.18;;;;;;;;;;10332571;28;20075;-64
2022/01/22 04:55:12;;;;;;;11.70;6.95;;;;;;;;;;10322932;28;20086;-64
2022/01/22 05:00:13;;;;;;;9.60;6.07;;;;;;;;;;10333220;28;20084;-63
2022/01/22 05:05:51;;;;;;;11.63;7.05;;;;;;;;;;10177849;28;20092;-63
2022/01/22 05:10:59;;;;;;;13.32;7.75;;;;;;;;;;10298141;28;20083;-63
2022/01/22 05:16:01;;;;;;;11.40;8.90;;;;;;;;;;10333045;28;20078;-64
2022/01/22 05:21:08;;;;;;;9.57;7.03;;;;;;;;;;10332121;28;20086;-65
2022/01/22 05:26:23;;;;;;;8.15;5.57;;;;;;;;;;10330885;28;20095;-64
2022/01/22 05:31:35;;;;;;;11.77;5.93;;;;;;;;;;10335502;28;20091;-64
2022/01/22 05:37:00;;;;;;;13.65;10.63;;;;;;;;;;10355958;28;20072;-64
2022/01/22 05:42:00;;;;;;;63.22;22.35;;;;;;;;;;10332916;28;20533;-64
2022/01/22 05:47:03;;;;;;;35.20;15.98;;;;;;;;;;10350522;28;20068;-64
2022/01/22 05:52:05;;;;;;;21.48;12.93;;;;;;;;;;10350328;28;20497;-64
2022/01/22 06:02:20;;;;;;;17.75;9.93;;;;;;;;;;10353708;28;20399;-65
2022/01/22 06:07:29;;;;;;;18.95;9.10;;;;;;;;;;10338614;28;20076;-63
2022/01/22 06:12:42;;;;;;;20.98;10.13;;;;;;;;;;10331739;28;20067;-65
2022/01/22 06:17:41;;;;;;;19.55;9.65;;;;;;;;;;10344309;28;20492;-64
2022/01/22 06:22:46;;;;;;;10.48;7.70;;;;;;;;;;10343275;28;20766;-65
2022/01/22 06:27:45;;;;;;;19.83;11.93;;;;;;;;;;10335140;28;20544;-64
2022/01/22 06:32:44;;;;;;;19.33;10.80;;;;;;;;;;10346924;28;20083;-65
2022/01/22 06:37:43;;;;;;;44.00;20.67;;;;;;;;;;10361159;28;20075;-64
2022/01/22 06:43:06;;;;;;;36.25;16.48;;;;;;;;;;10351245;28;20063;-64
2022/01/22 06:48:42;;;;;;;21.23;11.82;;;;;;;;;;10161723;28;20089;-64
2022/01/22 06:54:08;;;;;;;24.77;15.38;;;;;;;;;;10299181;28;20086;-65
2022/01/22 06:59:10;;;;;;;25.50;14.15;;;;;;;;;;10338751;28;20153;-65
2022/01/22 07:04:12;;;;;;;24.10;15.88;;;;;;;;;;10336778;28;20082;-63
2022/01/22 07:09:23;;;;;;;22.17;13.40;;;;;;;;;;10354586;28;20544;-64
2022/01/22 07:14:26;;;;;;;13.75;10.23;;;;;;;;;;10339153;28;20048;-65
2022/01/22 07:19:25;;;;;;;18.38;10.48;;;;;;;;;;10340051;28;20078;-65
2022/01/22 07:24:37;;;;;;;16.20;12.02;;;;;;;;;;10341451;28;20080;-64
2022/01/22 07:29:39;;;;;;;19.52;12.18;;;;;;;;;;10333361;28;20147;-64
2022/01/22 07:34:38;;;;;;;31.13;18.30;;;;;;;;;;10337260;28;20147;-62
2022/01/22 07:39:50;;;;;;;65.22;33.53;;;;;;;;;;10339738;28;20524;-64
2022/01/22 07:45:12;;;;;;;27.02;14.05;;;;;;;;;;10359398;28;20068;-63
2022/01/22 07:50:14;;;;;;;65.38;33.00;;;;;;;;;;10334643;28;20495;-63
2022/01/22 07:55:13;;;;;;;43.20;27.35;;;;;;;;;;10346327;28;20564;-63
2022/01/22 08:00:14;;;;;;;74.05;32.55;;;;;;;;;;10338167;28;20515;-63
2022/01/22 08:05:12;;;;;;;86.20;43.47;;;;;;;;;;10343987;28;20071;-64
2022/01/22 08:10:30;;;;;;;45.35;25.60;;;;;;;;;;10356299;28;20126;-62
2022/01/22 08:15:30;;;;;;;27.27;17.58;;;;;;;;;;10327414;28;20465;-63
2022/01/22 08:20:29;;;;;;;19.17;11.60;;;;;;;;;;10367941;28;20070;-64
2022/01/22 08:25:29;;;;;;;27.92;13.77;;;;;;;;;;10351507;28;20117;-63
2022/01/22 08:30:36;;;;;;;34.42;18.40;;;;;;;;;;10345123;28;20151;-63
2022/01/22 08:35:53;;;;;;;19.67;13.10;;;;;;;;;;10351652;28;20070;-63
2022/01/22 08:40:55;;;;;;;21.98;11.32;;;;;;;;;;10347730;28;20080;-63
2022/01/22 08:45:57;;;;;;;30.73;14.07;;;;;;;;;;10333442;28;20080;-64
2022/01/22 08:50:56;;;;;;;21.67;13.60;;;;;;;;;;10338063;28;20087;-63
2022/01/22 08:56:14;;;;;;;21.05;13.68;;;;;;;;;;10335467;28;20082;-63
2022/01/22 09:01:15;;;;;;;27.65;15.63;;;;;;;;;;10336387;28;20500;-63
2022/01/22 09:06:17;;;;;;;24.90;14.20;;;;;;;;;;10330563;28;20484;-64
2022/01/22 09:11:25;;;;;;;30.05;16.85;;;;;;;;;;10327373;28;20091;-64
2022/01/22 09:16:42;;;;;;;29.43;17.70;;;;;;;;;;10329478;28;20087;-64
2022/01/22 09:21:42;;;;;;;46.65;26.85;;;;;;;;;;10344356;28;20392;-63
2022/01/22 09:26:41;;;;;;;17.83;9.52;;;;;;;;;;10321732;28;20130;-63
2022/01/22 09:31:40;;;;;;;36.80;16.85;;;;;;;;;;10320988;28;20668;-64
2022/01/22 09:36:44;;;;;;;25.75;14.18;;;;;;;;;;10321727;28;20090;-64
2022/01/22 09:42:03;;;;;;;39.40;19.40;;;;;;;;;;10351192;28;20075;-64
2022/01/22 09:47:21;;;;;;;21.80;10.80;;;;;;;;;;10338360;28;20055;-64
2022/01/22 09:52:59;;;;;;;16.83;10.52;;;;;;;;;;10247654;28;20084;-64
2022/01/22 09:58:26;;;;;;;28.08;18.17;;;;;;;;;;10340476;28;20488;-64
2022/01/22 10:03:39;;;;;;;20.83;14.52;;;;;;;;;;10335528;28;20095;-63
2022/01/22 10:09:05;;;;;;;25.90;15.23;;;;;;;;;;10336136;28;20075;-64
2022/01/22 10:14:23;;;;;;;15.93;8.90;;;;;;;;;;10357041;28;20090;-63
2022/01/22 10:19:22;;;;;;;20.85;9.25;;;;;;;;;;10360047;28;20087;-64
2022/01/22 10:24:32;;;;;;;20.55;12.80;;;;;;;;;;10359618;28;20403;-63
2022/01/22 10:29:31;;;;;;;20.75;12.13;;;;;;;;;;10336656;28;21436;-63
2022/01/22 10:34:30;;;;;;;29.73;14.88;;;;;;;;;;10383329;28;20062;-62
2022/01/22 10:40:27;;;;;;;17.58;9.70;;;;;;;;;;10352448;28;20111;-63
2022/01/22 10:45:30;;;;;;;23.83;13.73;;;;;;;;;;10349338;28;20070;-64
2022/01/22 10:50:28;;;;;;;16.25;8.07;;;;;;;;;;10335407;28;20086;-63
2022/01/22 10:55:28;;;;;;;12.65;9.77;;;;;;;;;;10359423;28;20079;-63
2022/01/22 11:00:26;;;;;;;30.15;19.33;;;;;;;;;;10357803;28;20535;-62
2022/01/22 11:05:34;;;;;;;20.33;11.15;;;;;;;;;;10358098;28;20082;-62
2022/01/22 11:10:34;;;;;;;18.00;13.18;;;;;;;;;;10351045;28;20072;-63
2022/01/22 11:15:32;;;;;;;12.50;8.73;;;;;;;;;;10338056;28;20047;-63
2022/01/22 11:20:32;;;;;;;18.65;12.30;;;;;;;;;;10355663;28;20076;-63
2022/01/22 11:25:31;;;;;;;21.13;12.00;;;;;;;;;;10354262;28;20067;-63
2022/01/22 11:30:31;;;;;;;13.82;8.73;;;;;;;;;;10352825;28;20087;-63
2022/01/22 11:35:33;;;;;;;25.23;14.43;;;;;;;;;;10351057;28;20056;-62
2022/01/22 11:40:33;;;;;;;20.20;12.15;;;;;;;;;;10349198;28;20508;-62
2022/01/22 11:45:36;;;;;;;23.00;11.82;;;;;;;;;;10351168;28;20486;-62
2022/01/22 11:50:34;;;;;;;39.20;20.95;;;;;;;;;;10350596;28;20064;-63
2022/01/22 11:55:33;;;;;;;52.35;29.80;;;;;;;;;;10349921;28;20114;-63
2022/01/22 12:00:40;;;;;;;16.00;9.85;;;;;;;;;;10351152;28;20064;-63
2022/01/22 12:06:06;;;;;;;9.55;7.63;;;;;;;;;;10349425;28;20082;-63
2022/01/22 12:16:40;;;;;;;14.88;6.55;;;;;;;;;;10334225;28;20079;-63
2022/01/22 12:21:40;;;;;;;15.20;8.68;;;;;;;;;;10346717;28;20075;-63
2022/01/22 12:26:42;;;;;;;48.72;25.70;;;;;;;;;;10350051;28;20063;-62
2022/01/22 12:32:04;;;;;;;108.15;47.33;;;;;;;;;;10349104;28;20087;-63
2022/01/22 12:37:18;;;;;;;37.13;15.60;;;;;;;;;;10348335;28;20460;-64
2022/01/22 12:42:25;;;;;;;50.58;26.58;;;;;;;;;;10348046;28;20063;-64
2022/01/22 12:47:25;;;;;;;22.77;11.20;;;;;;;;;;10343570;28;20054;-62
2022/01/22 12:52:26;;;;;;;20.10;11.88;;;;;;;;;;10352499;28;20079;-62
2022/01/22 12:57:27;;;;;;;21.58;12.75;;;;;;;;;;10349050;28;21113;-64
2022/01/22 13:02:36;;;;;;;26.15;16.58;;;;;;;;;;10353538;28;20087;-62
2022/01/22 13:07:40;;;;;;;16.30;8.75;;;;;;;;;;10349002;28;20067;-63
2022/01/22 13:12:57;;;;;;;33.40;17.38;;;;;;;;;;10360459;28;20083;-62
2022/01/22 13:17:56;;;;;;;50.28;33.05;;;;;;;;;;10345675;28;20060;-63
2022/01/22 13:22:58;;;;;;;37.08;20.70;;;;;;;;;;10350774;28;20067;-64
2022/01/22 13:28:02;;;;;;;15.32;10.63;;;;;;;;;;10348611;28;20067;-66
2022/01/22 13:33:14;;;;;;;16.83;11.27;;;;;;;;;;10353950;28;20072;-63
2022/01/22 13:38:58;;;;;;;41.42;23.95;;;;;;;;;;10349107;28;20087;-63
2022/01/22 13:49:12;;;;;;;80.57;37.88;;;;;;;;;;10346424;28;20083;-63
2022/01/22 13:54:12;;;;;;;42.88;26.08;;;;;;;;;;10346681;28;20078;-64
2022/01/22 13:59:13;;;;;;;23.35;11.43;;;;;;;;;;10351092;28;20110;-63
2022/01/22 14:04:13;;;;;;;25.95;15.60;;;;;;;;;;10326033;28;20397;-63
2022/01/22 14:09:14;;;;;;;46.92;29.35;;;;;;;;;;10349621;28;20064;-63
2022/01/22 14:14:12;;;;;;;41.17;23.42;;;;;;;;;;10342979;28;20366;-63
2022/01/22 14:19:11;;;;;;;25.27;16.27;;;;;;;;;;10351245;28;20076;-65
2022/01/22 14:24:10;;;;;;;37.42;23.15;;;;;;;;;;10347285;28;20080;-64
2022/01/22 14:29:14;;;;;;;42.58;23.23;;;;;;;;;;10357885;28;20453;-62
2022/01/22 14:34:31;;;;;;;50.78;26.95;;;;;;;;;;10353623;28;20064;-63
2022/01/22 14:43:55;;;;;;;64.75;36.17;;;;;;;;;;10346581;28;20446;-62
2022/01/22 14:44:56;;;;;;;45.65;25.50;;;;;;;;;;10346450;28;20068;-63
2022/01/22 14:49:55;;;;;;;35.35;20.73;;;;;;;;;;10351849;28;20465;-63
2022/01/22 14:54:55;;;;;;;19.67;12.50;;;;;;;;;;10358770;28;20082;-63
2022/01/22 14:59:55;;;;;;;41.08;22.92;;;;;;;;;;10354953;28;20169;-63
2022/01/22 15:04:53;;;;;;;67.68;41.33;;;;;;;;;;10352266;28;20071;-63
2022/01/22 15:09:52;;;;;;;61.90;38.92;;;;;;;;;;10350545;28;20064;-63
2022/01/22 15:14:52;;;;;;;128.63;70.63;;;;;;;;;;10351263;28;20519;-63
2022/01/22 15:19:52;;;;;;;87.57;51.15;;;;;;;;;;10352386;28;20068;-63
2022/01/22 15:24:55;;;;;;;29.38;18.80;;;;;;;;;;10353187;28;20067;-63
2022/01/22 15:29:57;;;;;;;50.80;27.60;;;;;;;;;;10357773;28;20056;-63
2022/01/22 15:34:59;;;;;;;73.25;38.70;;;;;;;;;;10355680;28;20090;-62
2022/01/22 15:39:58;;;;;;;48.67;31.90;;;;;;;;;;10356680;28;20076;-63
2022/01/22 15:44:56;;;;;;;123.68;78.25;;;;;;;;;;10352322;28;20067;-63
2022/01/22 15:49:56;;;;;;;99.47;56.58;;;;;;;;;;10352262;28;20076;-63
2022/01/22 15:54:56;;;;;;;90.95;47.92;;;;;;;;;;10357676;28;20071;-63
2022/01/22 15:59:55;;;;;;;67.10;39.92;;;;;;;;;;10351290;28;20044;-63
2022/01/22 16:04:55;;;;;;;111.45;68.88;;;;;;;;;;10357020;28;20516;-63
2022/01/22 16:09:55;;;;;;;123.00;70.43;;;;;;;;;;10350953;28;20507;-62
2022/01/22 16:14:55;;;;;;;184.90;100.07;;;;;;;;;;10351254;28;20484;-62
2022/01/22 16:19:53;;;;;;;139.23;70.55;;;;;;;;;;10347843;28;20032;-62
2022/01/22 16:24:52;;;;;;;111.88;58.55;;;;;;;;;;10357757;28;20048;-64
2022/01/22 16:29:50;;;;;;;109.47;58.53;;;;;;;;;;10356106;28;20090;-62
2022/01/22 16:34:50;;;;;;;92.40;52.30;;;;;;;;;;10356705;28;20071;-62
2022/01/22 16:39:49;;;;;;;95.15;53.45;;;;;;;;;;10349666;28;20067;-63
2022/01/22 16:45:04;;;;;;;90.22;51.05;;;;;;;;;;10350195;28;20094;-63
2022/01/22 16:55:24;;;;;;;128.60;62.65;;;;;;;;;;10354647;28;20064;-63
2022/01/22 17:00:28;;;;;;;44.55;26.65;;;;;;;;;;10355773;28;20071;-63
2022/01/22 17:05:29;;;;;;;41.05;25.17;;;;;;;;;;10355393;28;20078;-63
2022/01/22 17:10:46;;;;;;;37.30;20.63;;;;;;;;;;10326231;28;20051;-62
2022/01/22 17:15:44;;;;;;;72.47;37.88;;;;;;;;;;10350082;28;20083;-64
2022/01/22 17:20:44;;;;;;;64.18;37.63;;;;;;;;;;10344587;28;20080;-65
2022/01/22 17:25:42;;;;;;;56.00;33.90;;;;;;;;;;10343269;28;20528;-65
2022/01/22 17:30:41;;;;;;;98.35;51.47;;;;;;;;;;10349286;28;20079;-62
2022/01/22 17:35:40;;;;;;;61.13;35.63;;;;;;;;;;10351092;28;20068;-62
2022/01/22 17:40:42;;;;;;;69.70;41.35;;;;;;;;;;10354314;28;20044;-63
2022/01/22 17:45:41;;;;;;;63.15;33.38;;;;;;;;;;10352839;28;20080;-63
2022/01/22 17:50:40;;;;;;;72.47;40.58;;;;;;;;;;10350057;28;20068;-63
2022/01/22 17:55:40;;;;;;;70.63;35.75;;;;;;;;;;10354434;28;20075;-63
2022/01/22 18:00:39;;;;;;;63.47;37.95;;;;;;;;;;10354538;28;20155;-63
2022/01/22 18:05:37;;;;;;;78.28;45.97;;;;;;;;;;10361672;28;20063;-63
2022/01/22 18:10:39;;;;;;;57.58;38.85;;;;;;;;;;10356180;28;20074;-63
2022/01/22 18:15:39;;;;;;;83.78;53.70;;;;;;;;;;10358459;28;20095;-63
2022/01/22 18:20:37;;;;;;;50.15;36.00;;;;;;;;;;10361703;28;20500;-63
2022/01/22 18:25:35;;;;;;;89.22;52.00;;;;;;;;;;10361481;28;20485;-63
2022/01/22 18:30:34;;;;;;;72.30;40.13;;;;;;;;;;10361042;28;20052;-63
2022/01/22 18:35:34;;;;;;;53.67;31.95;;;;;;;;;;10353506;28;20075;-63
2022/01/22 18:40:33;;;;;;;86.82;47.28;;;;;;;;;;10355058;28;20079;-63
2022/01/22 18:45:31;;;;;;;86.78;45.25;;;;;;;;;;10357054;28;20067;-63
2022/01/22 18:50:30;;;;;;;67.70;36.53;;;;;;;;;;10355617;28;20127;-62
2022/01/22 18:55:30;;;;;;;166.20;75.90;;;;;;;;;;10360210;28;20075;-64
2022/01/22 19:00:28;;;;;;;115.63;61.03;;;;;;;;;;10360223;28;20063;-63
2022/01/22 19:05:27;;;;;;;93.43;50.10;;;;;;;;;;10360062;28;20075;-63
2022/01/22 19:10:25;;;;;;;147.50;67.50;;;;;;;;;;10360149;28;20059;-63
2022/01/22 19:15:25;;;;;;;307.23;143.63;;;;;;;;;;10357674;28;20509;-63
2022/01/22 19:20:23;;;;;;;232.38;105.97;;;;;;;;;;10355766;28;20071;-63
2022/01/22 19:30:37;;;;;;;108.85;55.08;;;;;;;;;;10351634;28;20110;-62
2022/01/22 19:35:37;;;;;;;95.82;48.67;;;;;;;;;;10354754;28;20541;-63
2022/01/22 19:40:35;;;;;;;92.95;47.83;;;;;;;;;;10358775;28;20044;-63
2022/01/22 19:45:36;;;;;;;73.60;41.33;;;;;;;;;;10357896;28;20068;-62
2022/01/22 19:50:36;;;;;;;87.43;51.45;;;;;;;;;;10350459;28;20075;-62
2022/01/22 19:55:35;;;;;;;73.32;42.90;;;;;;;;;;10351153;28;20490;-63
2022/01/22 20:00:35;;;;;;;74.15;39.95;;;;;;;;;;10348350;28;20078;-63
2022/01/22 20:05:35;;;;;;;78.00;41.17;;;;;;;;;;10345295;28;20068;-62
2022/01/22 20:10:35;;;;;;;59.47;34.10;;;;;;;;;;10350509;28;20059;-63
2022/01/22 20:15:35;;;;;;;67.63;36.15;;;;;;;;;;10348934;28;20497;-63
2022/01/22 20:20:34;;;;;;;64.35;37.42;;;;;;;;;;10352251;28;20516;-63
2022/01/22 20:25:52;;;;;;;78.65;43.15;;;;;;;;;;10346936;28;20541;-63
2022/01/22 20:30:53;;;;;;;66.35;36.65;;;;;;;;;;10343829;28;20110;-63
2022/01/22 20:35:51;;;;;;;71.95;36.33;;;;;;;;;;10347285;28;20072;-62
2022/01/22 20:40:50;;;;;;;80.80;37.60;;;;;;;;;;10348865;28;20063;-61
2022/01/22 20:45:48;;;;;;;62.55;32.30;;;;;;;;;;10350863;28;20064;-62
2022/01/22 20:50:48;;;;;;;58.88;32.75;;;;;;;;;;10352855;28;20086;-62
2022/01/22 20:55:46;;;;;;;68.53;36.55;;;;;;;;;;10349571;28;20079;-61
2022/01/22 21:00:45;;;;;;;66.65;34.40;;;;;;;;;;10348050;28;20453;-62
2022/01/22 21:05:44;;;;;;;67.00;36.88;;;;;;;;;;10346417;28;20064;-61
2022/01/22 21:10:44;;;;;;;45.88;26.80;;;;;;;;;;10355640;28;20069;-62
2022/01/22 21:15:43;;;;;;;44.38;25.67;;;;;;;;;;10353017;28;20088;-62
2022/01/22 21:20:41;;;;;;;48.08;25.95;;;;;;;;;;10349683;28;20082;-61
2022/01/22 21:25:40;;;;;;;54.08;29.27;;;;;;;;;;10354873;28;20072;-61
2022/01/22 21:30:39;;;;;;;46.58;27.67;;;;;;;;;;10354041;28;20162;-63
2022/01/22 21:35:38;;;;;;;47.40;26.23;;;;;;;;;;10351501;28;20082;-63
2022/01/22 21:40:41;;;;;;;82.55;48.85;;;;;;;;;;10359528;28;20080;-60
2022/01/22 21:45:41;;;;;;;135.27;72.75;;;;;;;;;;10356523;28;20068;-62
2022/01/22 21:50:40;;;;;;;42.60;26.08;;;;;;;;;;10357661;28;20511;-62
2022/01/22 21:55:43;;;;;;;56.67;26.42;;;;;;;;;;10361840;28;20083;-62
2022/01/22 22:00:42;;;;;;;43.67;24.10;;;;;;;;;;10362443;28;20071;-61
2022/01/22 22:05:41;;;;;;;153.75;81.75;;;;;;;;;;10355644;28;20478;-62
2022/01/22 22:10:39;;;;;;;80.65;40.45;;;;;;;;;;10356984;28;20067;-62
2022/01/22 22:15:40;;;;;;;51.83;27.55;;;;;;;;;;10361468;28;20079;-62
2022/01/22 22:20:42;;;;;;;47.15;25.80;;;;;;;;;;10361187;28;20405;-62
2022/01/22 22:25:41;;;;;;;42.72;23.05;;;;;;;;;;10349924;28;20064;-62
2022/01/22 22:30:40;;;;;;;31.85;18.20;;;;;;;;;;10360197;28;20087;-62
2022/01/22 22:35:39;;;;;;;39.53;27.15;;;;;;;;;;10360597;28;20082;-61
2022/01/22 22:40:38;;;;;;;28.55;18.60;;;;;;;;;;10355894;28;20079;-63
2022/01/22 22:45:36;;;;;;;26.08;17.10;;;;;;;;;;10355517;28;20072;-62
2022/01/22 22:50:35;;;;;;;34.92;19.88;;;;;;;;;;10360759;28;20072;-62
2022/01/22 22:55:34;;;;;;;58.10;37.90;;;;;;;;;;10359607;28;20087;-62
2022/01/22 23:00:43;;;;;;;39.00;25.25;;;;;;;;;;10360461;28;20044;-62
2022/01/22 23:05:41;;;;;;;36.03;26.25;;;;;;;;;;10360482;28;20554;-63
2022/01/22 23:10:43;;;;;;;25.95;19.88;;;;;;;;;;10355866;28;20084;-62
2022/01/22 23:15:42;;;;;;;28.38;18.05;;;;;;;;;;10355249;28;20075;-62
2022/01/22 23:25:59;;;;;;;28.13;18.20;;;;;;;;;;10355724;28;20173;-62
2022/01/22 23:31:01;;;;;;;41.20;22.20;;;;;;;;;;10354897;28;20079;-62
2022/01/22 23:36:21;;;;;;;70.70;38.85;;;;;;;;;;10354105;28;20477;-62
2022/01/22 23:47:11;;;;;;;37.95;20.08;;;;;;;;;;10353577;28;20060;-62
2022/01/22 23:57:32;;;;;;;32.25;20.30;;;;;;;;;;10354375;28;20099;-62
